createdAt,value
2023-07-25T00:00:09.187Z,45.90
2023-07-25T00:02:58.454Z,46.50
2023-07-25T00:05:28.876Z,46.30
2023-07-25T00:07:57.601Z,46.40
2023-07-25T00:10:26.547Z,46.20
2023-07-25T00:12:56.422Z,46.10
2023-07-25T00:15:25.600Z,46.00
2023-07-25T00:17:54.289Z,46.20
2023-07-25T00:20:23.276Z,46.20
2023-07-25T00:22:53.365Z,46.30
2023-07-25T00:25:22.877Z,46.30
2023-07-25T00:27:51.911Z,46.40
2023-07-25T00:30:21.082Z,46.50
2023-07-25T00:32:49.938Z,46.60
2023-07-25T00:35:19.166Z,46.70
2023-07-25T00:37:47.852Z,46.80
2023-07-25T00:40:18.362Z,47.00
2023-07-25T00:42:47.155Z,46.90
2023-07-25T00:45:16.276Z,47.00
2023-07-25T00:47:45.179Z,47.20
2023-07-25T00:50:14.553Z,47.00
2023-07-25T00:52:43.930Z,47.10
2023-07-25T00:55:14.830Z,47.10
2023-07-25T00:57:44.908Z,47.30
2023-07-25T01:00:15.011Z,47.20
2023-07-25T01:02:44.023Z,47.30
2023-07-25T01:05:13.459Z,47.50
2023-07-25T01:07:43.448Z,47.40
2023-07-25T01:10:14.711Z,47.50
2023-07-25T01:12:44.899Z,47.70
2023-07-25T01:15:13.969Z,47.70
2023-07-25T01:17:42.750Z,47.80
2023-07-25T01:20:12.781Z,47.80
2023-07-25T01:22:43.142Z,47.90
2023-07-25T01:25:13.685Z,47.90
2023-07-25T01:27:42.577Z,47.90
2023-07-25T01:30:12.365Z,48.00
2023-07-25T01:32:41.205Z,48.70
2023-07-25T01:35:10.617Z,48.20
2023-07-25T01:37:39.651Z,48.20
2023-07-25T01:40:11.374Z,48.10
2023-07-25T01:42:41.595Z,48.20
2023-07-25T01:45:12.266Z,48.20
2023-07-25T01:47:41.346Z,48.20
2023-07-25T01:50:11.407Z,48.30
2023-07-25T01:52:40.166Z,48.30
2023-07-25T01:55:10.818Z,48.40
2023-07-25T01:57:40.975Z,48.40
2023-07-25T02:00:11.601Z,48.60
2023-07-25T02:02:43.532Z,48.60
2023-07-25T02:05:12.828Z,48.70
2023-07-25T02:07:41.707Z,48.60
2023-07-25T02:10:11.417Z,48.80
2023-07-25T02:12:41.858Z,48.70
2023-07-25T02:15:12.099Z,48.80
2023-07-25T02:17:40.884Z,48.90
2023-07-25T02:20:11.045Z,48.80
2023-07-25T02:22:39.901Z,49.00
2023-07-25T02:25:10.142Z,49.10
2023-07-25T02:27:38.843Z,49.10
2023-07-25T02:30:10.524Z,49.10
2023-07-25T02:32:39.350Z,49.20
2023-07-25T02:35:08.826Z,49.30
2023-07-25T02:37:37.822Z,49.30
2023-07-25T02:40:09.615Z,49.40
2023-07-25T02:42:38.455Z,49.50
2023-07-25T02:45:10.763Z,49.40
2023-07-25T02:47:39.733Z,49.50
2023-07-25T02:50:10.270Z,49.60
2023-07-25T02:52:39.097Z,49.70
2023-07-25T02:55:08.966Z,49.60
2023-07-25T02:57:37.759Z,49.70
2023-07-25T03:00:10.881Z,49.80
2023-07-25T03:02:39.742Z,49.90
2023-07-25T03:05:09.525Z,49.80
2023-07-25T03:07:38.357Z,49.90
2023-07-25T03:10:09.334Z,50.00
2023-07-25T03:12:38.152Z,50.10
2023-07-25T03:15:09.531Z,50.00
2023-07-25T03:17:38.954Z,50.10
2023-07-25T03:20:09.940Z,50.10
2023-07-25T03:22:38.867Z,50.20
2023-07-25T03:25:08.898Z,50.30
2023-07-25T03:27:38.088Z,50.20
2023-07-25T03:30:09.909Z,50.20
2023-07-25T03:32:38.780Z,50.20
2023-07-25T03:35:10.231Z,50.30
2023-07-25T03:37:39.026Z,50.40
2023-07-25T03:40:09.591Z,50.40
2023-07-25T03:42:38.424Z,50.40
2023-07-25T03:45:10.619Z,50.50
2023-07-25T03:47:39.497Z,50.50
2023-07-25T03:50:09.849Z,50.50
2023-07-25T03:52:38.603Z,50.60
2023-07-25T03:55:09.194Z,50.60
2023-07-25T03:57:38.101Z,50.60
2023-07-25T04:00:10.291Z,50.60
2023-07-25T04:02:41.896Z,50.60
2023-07-25T04:05:11.258Z,50.50
2023-07-25T04:07:40.213Z,50.40
2023-07-25T04:10:10.383Z,50.30
2023-07-25T04:12:39.142Z,50.20
2023-07-25T04:15:11.093Z,50.10
2023-07-25T04:17:40.061Z,50.20
2023-07-25T04:20:10.873Z,50.10
2023-07-25T04:22:40.806Z,50.00
2023-07-25T04:25:10.442Z,49.60
2023-07-25T04:27:39.192Z,49.30
2023-07-25T04:30:11.574Z,49.30
2023-07-25T04:32:40.553Z,49.10
2023-07-25T04:35:10.642Z,48.60
2023-07-25T04:37:39.427Z,48.30
2023-07-25T04:40:10.688Z,48.20
2023-07-25T04:42:39.484Z,47.80
2023-07-25T04:45:12.178Z,47.30
2023-07-25T04:47:40.988Z,47.30
2023-07-25T04:50:11.520Z,47.00
2023-07-25T04:52:40.508Z,47.00
2023-07-25T04:55:10.880Z,46.80
2023-07-25T04:57:39.927Z,46.60
2023-07-25T05:00:12.150Z,46.60
2023-07-25T05:02:42.748Z,46.60
2023-07-25T05:05:12.220Z,46.60
2023-07-25T05:07:40.925Z,46.60
2023-07-25T05:10:11.201Z,46.60
2023-07-25T05:12:40.049Z,46.90
2023-07-25T05:15:11.148Z,46.70
2023-07-25T05:17:39.879Z,46.30
2023-07-25T05:20:10.442Z,46.30
2023-07-25T05:22:39.226Z,45.90
2023-07-25T05:25:09.579Z,45.80
2023-07-25T05:27:38.367Z,46.00
2023-07-25T05:30:10.235Z,45.60
2023-07-25T05:32:39.880Z,45.30
2023-07-25T05:35:09.332Z,45.00
2023-07-25T05:37:39.760Z,44.90
2023-07-25T05:40:10.789Z,44.40
2023-07-25T05:42:39.586Z,44.40
2023-07-25T05:45:11.127Z,44.30
2023-07-25T05:47:39.919Z,44.50
2023-07-25T05:50:10.672Z,44.70
2023-07-25T05:52:39.416Z,44.80
2023-07-25T05:55:09.435Z,44.50
2023-07-25T05:57:38.399Z,44.50
2023-07-25T06:00:11.092Z,44.30
2023-07-25T06:02:39.941Z,44.30
2023-07-25T06:05:09.556Z,44.40
2023-07-25T06:07:38.331Z,43.80
2023-07-25T06:10:09.349Z,43.70
2023-07-25T06:12:38.224Z,43.80
2023-07-25T06:15:10.573Z,43.70
2023-07-25T06:17:39.359Z,44.00
2023-07-25T06:20:10.444Z,44.10
2023-07-25T06:22:39.864Z,43.90
2023-07-25T06:25:14.010Z,44.10
2023-07-25T06:27:42.880Z,44.20
2023-07-25T06:30:14.158Z,43.80
2023-07-25T06:32:43.403Z,44.10
2023-07-25T06:35:12.598Z,44.20
2023-07-25T06:37:41.619Z,44.20
2023-07-25T06:40:11.811Z,43.60
2023-07-25T06:42:40.614Z,43.70
2023-07-25T06:45:13.410Z,43.80
2023-07-25T06:47:42.178Z,43.40
2023-07-25T06:50:11.697Z,43.30
2023-07-25T06:52:40.454Z,42.80
2023-07-25T06:55:10.853Z,43.30
2023-07-25T06:57:39.748Z,43.20
2023-07-25T07:00:10.588Z,42.70
2023-07-25T07:02:40.664Z,42.60
2023-07-25T07:05:28.056Z,42.70
2023-07-25T07:07:58.558Z,42.60
2023-07-25T07:10:27.935Z,42.50
2023-07-25T07:12:56.773Z,42.90
2023-07-25T07:15:26.225Z,42.40
2023-07-25T07:17:56.524Z,42.50
2023-07-25T07:20:25.812Z,42.50
2023-07-25T07:22:54.567Z,42.80
2023-07-25T07:25:23.666Z,42.50
2023-07-25T07:27:52.518Z,42.90
2023-07-25T07:30:21.910Z,43.10
2023-07-25T07:32:50.754Z,43.20
2023-07-25T07:35:21.700Z,42.90
2023-07-25T07:37:50.625Z,42.20
2023-07-25T07:40:19.564Z,41.80
2023-07-25T07:42:48.326Z,42.20
2023-07-25T07:45:17.753Z,42.20
2023-07-25T07:47:47.194Z,42.30
2023-07-25T07:50:16.242Z,42.00
2023-07-25T07:52:47.866Z,41.90
2023-07-25T07:55:19.821Z,41.70
2023-07-25T07:57:49.639Z,42.10
2023-07-25T08:00:19.639Z,42.10
2023-07-25T08:02:48.592Z,41.70
2023-07-25T08:05:17.818Z,41.50
2023-07-25T08:07:48.123Z,41.20
2023-07-25T08:10:17.357Z,41.40
2023-07-25T08:12:46.241Z,40.60
2023-07-25T08:15:15.359Z,40.80
2023-07-25T08:17:44.194Z,40.90
2023-07-25T08:20:14.645Z,40.30
2023-07-25T08:22:43.416Z,40.80
2023-07-25T08:25:14.003Z,40.60
2023-07-25T08:27:42.822Z,40.90
2023-07-25T08:30:13.027Z,40.20
2023-07-25T08:32:41.970Z,40.00
2023-07-25T08:35:11.195Z,40.40
2023-07-25T08:37:40.069Z,40.50
2023-07-25T08:40:11.488Z,40.80
2023-07-25T08:42:44.887Z,40.40
2023-07-25T08:45:14.710Z,40.20
2023-07-25T08:47:45.719Z,40.20
2023-07-25T08:50:19.148Z,39.70
2023-07-25T08:52:54.158Z,39.20
2023-07-25T08:55:23.591Z,38.80
2023-07-25T08:57:55.174Z,38.80
2023-07-25T09:00:25.406Z,39.10
2023-07-25T09:02:56.369Z,39.10
2023-07-25T09:05:30.677Z,39.10
2023-07-25T09:08:00.450Z,38.60
2023-07-25T09:10:31.580Z,38.80
2023-07-25T09:13:01.782Z,39.20
2023-07-25T09:15:31.171Z,38.60
2023-07-25T09:17:59.995Z,38.70
2023-07-25T09:20:29.562Z,39.10
2023-07-25T09:22:59.137Z,38.30
2023-07-25T09:25:29.081Z,38.30
2023-07-25T09:27:58.095Z,38.50
2023-07-25T09:30:30.133Z,38.40
2023-07-25T09:32:58.966Z,38.70
2023-07-25T09:35:28.060Z,38.20
2023-07-25T09:37:57.464Z,38.10
2023-07-25T09:40:27.499Z,38.10
2023-07-25T09:42:56.284Z,38.40
2023-07-25T09:45:25.406Z,38.20
2023-07-25T09:47:55.627Z,38.50
2023-07-25T09:50:28.030Z,38.10
2023-07-25T09:52:56.711Z,37.90
2023-07-25T09:55:26.239Z,37.90
2023-07-25T09:57:55.966Z,37.70
2023-07-25T10:00:25.489Z,38.10
2023-07-25T10:02:57.498Z,38.20
2023-07-25T10:05:30.155Z,36.90
2023-07-25T10:07:59.498Z,36.90
2023-07-25T10:10:29.472Z,36.40
2023-07-25T10:12:58.438Z,36.30
2023-07-25T10:15:28.151Z,36.50
2023-07-25T10:18:05.203Z,36.40
2023-07-25T10:20:34.368Z,36.50
2023-07-25T10:23:12.261Z,36.60
2023-07-25T10:25:41.374Z,36.60
2023-07-25T10:28:10.766Z,35.90
2023-07-25T10:30:45.262Z,35.90
2023-07-25T10:33:18.215Z,36.00
2023-07-25T10:35:54.219Z,35.10
2023-07-25T10:38:31.562Z,36.00
2023-07-25T10:41:03.259Z,36.20
2023-07-25T10:44:03.347Z,35.50
2023-07-25T10:46:35.127Z,34.40
2023-07-25T10:49:14.892Z,33.70
2023-07-25T10:51:52.595Z,33.80
2023-07-25T10:54:26.362Z,33.90
2023-07-25T10:57:18.542Z,33.80
2023-07-25T11:00:01.899Z,33.70
2023-07-25T11:02:33.309Z,33.60
2023-07-25T11:05:27.008Z,34.10
2023-07-25T11:07:57.340Z,34.30
2023-07-25T11:10:28.777Z,34.10
2023-07-25T11:13:00.368Z,34.40
2023-07-25T11:15:46.684Z,34.60
2023-07-25T11:18:16.578Z,34.70
2023-07-25T11:21:00.192Z,34.90
2023-07-25T11:23:29.421Z,34.80
2023-07-25T11:26:02.861Z,34.40
2023-07-25T11:28:32.589Z,34.60
2023-07-25T11:31:02.158Z,34.80
2023-07-25T11:33:39.398Z,34.50
2023-07-25T11:36:09.689Z,34.40
2023-07-25T11:38:39.699Z,34.40
2023-07-25T11:41:09.782Z,34.50
2023-07-25T11:43:38.915Z,34.50
2023-07-25T11:46:08.607Z,34.80
2023-07-25T11:48:37.900Z,34.70
2023-07-25T11:51:08.428Z,34.60
2023-07-25T11:53:38.068Z,34.70
2023-07-25T11:56:07.588Z,34.60
2023-07-25T11:58:38.167Z,34.90
2023-07-25T12:01:10.953Z,34.70
2023-07-25T12:03:49.329Z,34.10
2023-07-25T12:06:30.710Z,33.90
2023-07-25T12:09:01.817Z,33.50
2023-07-25T12:11:31.546Z,34.30
2023-07-25T12:14:02.906Z,34.30
2023-07-25T12:16:34.246Z,34.30
2023-07-25T12:19:07.286Z,34.40
2023-07-25T12:21:40.198Z,34.30
2023-07-25T12:24:11.618Z,33.90
2023-07-25T12:26:49.423Z,34.60
2023-07-25T12:29:23.279Z,34.60
2023-07-25T12:31:52.845Z,34.40
2023-07-25T12:34:22.866Z,34.30
2023-07-25T12:36:54.389Z,35.20
2023-07-25T12:39:23.670Z,34.90
2023-07-25T12:41:52.699Z,34.80
2023-07-25T12:44:21.965Z,33.90
2023-07-25T12:46:51.008Z,33.80
2023-07-25T12:49:20.640Z,34.40
2023-07-25T12:51:49.667Z,34.30
2023-07-25T12:54:20.504Z,34.50
2023-07-25T12:56:49.722Z,34.50
2023-07-25T12:59:19.029Z,34.70
2023-07-25T13:01:49.222Z,34.70
2023-07-25T13:04:18.808Z,34.70
2023-07-25T13:06:48.278Z,34.90
2023-07-25T13:09:17.520Z,35.10
2023-07-25T13:11:48.082Z,35.10
2023-07-25T13:14:17.388Z,35.00
2023-07-25T13:16:46.546Z,35.40
2023-07-25T13:19:16.194Z,34.80
2023-07-25T13:21:45.475Z,34.80
2023-07-25T13:24:14.886Z,34.90
2023-07-25T13:26:44.089Z,34.90
2023-07-25T13:29:14.823Z,34.60
2023-07-25T13:31:43.955Z,34.90
2023-07-25T13:34:14.095Z,35.00
2023-07-25T13:36:43.198Z,35.20
2023-07-25T13:39:12.533Z,34.90
2023-07-25T13:41:41.625Z,34.40
2023-07-25T13:44:11.035Z,35.10
2023-07-25T13:46:42.695Z,34.30
2023-07-25T13:49:12.094Z,34.40
2023-07-25T13:51:41.344Z,34.50
2023-07-25T13:54:10.843Z,34.70
2023-07-25T13:56:40.088Z,34.80
2023-07-25T13:59:09.440Z,34.20
2023-07-25T14:01:38.451Z,34.40
2023-07-25T14:04:10.766Z,34.20
2023-07-25T14:06:39.863Z,34.30
2023-07-25T14:09:09.271Z,34.50
2023-07-25T14:11:38.363Z,34.50
2023-07-25T14:14:07.894Z,35.10
2023-07-25T14:16:37.108Z,34.70
2023-07-25T14:19:08.161Z,34.90
2023-07-25T14:21:37.171Z,35.10
2023-07-25T14:24:07.756Z,35.10
2023-07-25T14:26:37.556Z,34.40
2023-07-25T14:29:07.164Z,33.90
2023-07-25T14:31:36.190Z,33.90
2023-07-25T14:34:05.551Z,34.30
2023-07-25T14:36:36.039Z,34.70
2023-07-25T14:39:05.729Z,34.50
2023-07-25T14:41:35.282Z,34.50
2023-07-25T14:44:04.658Z,34.30
2023-07-25T14:46:34.222Z,34.70
2023-07-25T14:49:04.008Z,34.80
2023-07-25T14:51:33.210Z,35.00
2023-07-25T14:54:04.046Z,34.70
2023-07-25T14:56:34.230Z,34.80
2023-07-25T14:59:05.005Z,35.00
2023-07-25T15:01:34.247Z,35.20
2023-07-25T15:04:04.274Z,35.10
2023-07-25T15:06:34.864Z,35.30
2023-07-25T15:09:07.130Z,35.30
2023-07-25T15:11:37.561Z,35.50
2023-07-25T15:14:06.924Z,35.40
2023-07-25T15:16:36.405Z,35.50
2023-07-25T15:19:07.129Z,35.50
2023-07-25T15:21:36.403Z,35.60
2023-07-25T15:24:07.465Z,35.80
2023-07-25T15:26:36.683Z,35.60
2023-07-25T15:42:30.480Z,34.50
2023-07-25T15:44:59.821Z,36.10
2023-07-25T15:47:29.093Z,36.00
2023-07-25T15:49:58.643Z,36.20
2023-07-25T15:52:27.721Z,36.00
2023-07-25T15:54:56.960Z,35.90
2023-07-25T15:57:26.183Z,35.90
2023-07-25T15:59:56.935Z,36.10
2023-07-25T16:02:25.946Z,36.10
2023-07-25T16:04:55.252Z,36.00
2023-07-25T16:07:25.184Z,35.70
2023-07-25T16:09:54.535Z,35.80
2023-07-25T16:12:23.892Z,36.10
2023-07-25T16:14:53.339Z,36.40
2023-07-25T16:17:24.444Z,36.40
2023-07-25T16:19:53.932Z,36.70
2023-07-25T16:22:22.984Z,36.60
2023-07-25T16:24:53.988Z,36.60
2023-07-25T16:27:23.176Z,36.80
2023-07-25T16:29:52.512Z,36.90
2023-07-25T16:32:23.148Z,36.90
2023-07-25T16:34:52.562Z,36.90
2023-07-25T16:37:21.651Z,37.20
2023-07-25T16:39:51.064Z,37.20
2023-07-25T16:42:20.205Z,37.30
2023-07-25T16:44:50.197Z,37.40
2023-07-25T16:47:19.368Z,37.20
2023-07-25T16:49:50.150Z,37.20
2023-07-25T16:52:19.144Z,37.40
2023-07-25T16:54:48.496Z,37.50
2023-07-25T16:57:17.525Z,37.70
2023-07-25T16:59:46.993Z,37.60
2023-07-25T17:02:16.115Z,37.70
2023-07-25T17:04:45.548Z,37.50
2023-07-25T17:07:16.171Z,37.40
2023-07-25T17:09:45.502Z,37.50
2023-07-25T17:12:14.585Z,37.60
2023-07-25T17:14:44.099Z,37.30
2023-07-25T17:17:13.911Z,37.30
2023-07-25T17:19:43.497Z,37.40
2023-07-25T17:22:12.633Z,37.40
2023-07-25T17:24:43.346Z,37.50
2023-07-25T17:27:12.516Z,37.50
2023-07-25T17:29:41.863Z,37.50
2023-07-25T17:32:11.032Z,37.60
2023-07-25T17:34:40.257Z,37.80
2023-07-25T17:37:09.676Z,38.10
2023-07-25T17:39:38.993Z,38.10
2023-07-25T17:42:09.931Z,38.20
2023-07-25T17:44:39.366Z,38.20
2023-07-25T17:47:08.641Z,38.00
2023-07-25T17:49:38.047Z,38.00
2023-07-25T17:52:08.625Z,38.10
2023-07-25T17:54:37.989Z,38.00
2023-07-25T17:57:08.966Z,38.00
2023-07-25T17:59:38.511Z,38.00
2023-07-25T18:02:08.569Z,38.10
2023-07-25T18:04:37.979Z,38.90
2023-07-25T18:07:07.861Z,38.20
2023-07-25T18:09:37.312Z,38.10
2023-07-25T18:12:09.163Z,38.20
2023-07-25T18:14:38.593Z,38.40
2023-07-25T18:17:08.616Z,38.40
2023-07-25T18:19:38.100Z,38.50
2023-07-25T18:22:07.867Z,38.60
2023-07-25T18:24:37.303Z,38.50
2023-07-25T18:27:08.272Z,38.20
2023-07-25T18:29:37.664Z,38.30
2023-07-25T18:32:07.621Z,38.20
2023-07-25T18:34:37.141Z,38.40
2023-07-25T18:37:06.796Z,38.70
2023-07-25T18:39:36.182Z,38.70
2023-07-25T18:42:05.761Z,38.80
2023-07-25T18:44:36.644Z,38.80
2023-07-25T18:47:06.944Z,38.60
2023-07-25T18:49:36.661Z,38.70
2023-07-25T18:52:06.611Z,38.90
2023-07-25T18:54:35.934Z,39.10
2023-07-25T18:57:05.230Z,39.20
2023-07-25T18:59:36.202Z,39.10
2023-07-25T19:02:05.710Z,39.20
2023-07-25T19:04:35.040Z,38.90
2023-07-25T19:07:04.090Z,39.10
2023-07-25T19:09:34.707Z,39.00
2023-07-25T19:12:03.841Z,39.00
2023-07-25T19:14:33.130Z,39.00
2023-07-25T19:17:03.556Z,39.00
2023-07-25T19:19:33.185Z,39.00
2023-07-25T19:22:02.338Z,39.00
2023-07-25T19:24:31.932Z,39.00
2023-07-25T19:27:02.036Z,39.00
2023-07-25T19:29:31.454Z,39.10
2023-07-25T19:32:00.731Z,39.20
2023-07-25T19:34:31.495Z,39.30
2023-07-25T19:37:00.465Z,39.40
2023-07-25T19:39:30.061Z,39.50
2023-07-25T19:41:59.075Z,39.40
2023-07-25T19:44:28.404Z,39.50
2023-07-25T19:46:57.590Z,39.40
2023-07-25T19:49:27.543Z,39.40
2023-07-25T19:51:58.049Z,39.30
2023-07-25T19:54:27.493Z,39.30
2023-07-25T19:56:56.527Z,39.40
2023-07-25T19:59:25.886Z,39.40
2023-07-25T20:01:55.299Z,39.40
2023-07-25T20:04:24.656Z,39.50
2023-07-25T20:06:53.771Z,39.50
2023-07-25T20:09:24.725Z,39.40
2023-07-25T20:11:53.779Z,39.50
2023-07-25T20:14:23.291Z,39.30
2023-07-25T20:16:52.410Z,39.40
2023-07-25T20:19:24.336Z,39.50
2023-07-25T20:21:53.381Z,39.60
2023-07-25T20:24:24.249Z,39.60
2023-07-25T20:26:55.558Z,39.70
2023-07-25T20:29:24.893Z,39.80
2023-07-25T20:31:54.034Z,39.80
2023-07-25T20:34:23.504Z,39.90
2023-07-25T20:36:52.604Z,39.90
2023-07-25T20:39:23.436Z,40.00
2023-07-25T20:41:52.724Z,40.10
2023-07-25T20:44:22.328Z,40.20
2023-07-25T20:46:51.576Z,40.30
2023-07-25T20:49:20.991Z,40.40
2023-07-25T20:51:50.149Z,40.40
2023-07-25T20:54:19.710Z,40.60
2023-07-25T20:56:50.162Z,40.60
2023-07-25T20:59:19.685Z,40.70
2023-07-25T21:01:48.799Z,40.70
2023-07-25T21:04:18.346Z,40.90
2023-07-25T21:06:47.639Z,41.00
2023-07-25T21:09:17.238Z,41.10
2023-07-25T21:11:46.292Z,41.30
2023-07-25T21:14:17.314Z,41.40
2023-07-25T21:16:46.542Z,41.50
2023-07-25T21:19:16.020Z,41.70
2023-07-25T21:21:45.525Z,41.80
2023-07-25T21:24:15.924Z,41.80
2023-07-25T21:26:45.090Z,42.00
2023-07-25T21:29:14.418Z,42.10
2023-07-25T21:31:44.851Z,42.10
2023-07-25T21:34:14.376Z,42.30
2023-07-25T21:36:43.640Z,42.20
2023-07-25T21:39:13.041Z,42.40
2023-07-25T21:41:42.182Z,42.50
2023-07-25T21:44:11.482Z,42.50
2023-07-25T21:46:41.060Z,42.70
2023-07-25T21:49:11.986Z,42.70
2023-07-25T21:51:41.064Z,42.90
2023-07-25T21:54:10.431Z,42.80
2023-07-25T21:56:39.538Z,43.00
2023-07-25T21:59:08.889Z,43.00
2023-07-25T22:01:37.906Z,43.10
2023-07-25T22:04:09.161Z,43.10
2023-07-25T22:06:39.829Z,43.10
2023-07-25T22:09:08.966Z,43.10
2023-07-25T22:11:38.247Z,43.20
2023-07-25T22:14:07.641Z,43.10
2023-07-25T22:16:37.150Z,43.30
2023-07-25T22:19:06.369Z,43.30
2023-07-25T22:21:35.734Z,43.40
2023-07-25T22:24:06.680Z,43.40
2023-07-25T22:26:36.064Z,43.40
2023-07-25T22:29:05.141Z,43.50
2023-07-25T22:31:37.352Z,43.60
2023-07-25T22:34:06.466Z,43.60
2023-07-25T22:36:35.882Z,43.70
2023-07-25T22:39:06.426Z,43.70
2023-07-25T22:41:35.826Z,43.80
2023-07-25T22:44:04.973Z,43.80
2023-07-25T22:46:34.982Z,43.80
2023-07-25T22:49:04.060Z,43.90
2023-07-25T22:51:33.315Z,43.90
2023-07-25T22:54:02.578Z,43.90
2023-07-25T22:56:34.379Z,43.90
2023-07-25T22:59:05.592Z,44.00
2023-07-25T23:01:35.384Z,44.10
2023-07-25T23:04:04.626Z,44.10
2023-07-25T23:06:34.023Z,44.20
2023-07-25T23:09:03.604Z,44.20
2023-07-25T23:11:34.543Z,44.30
2023-07-25T23:14:03.832Z,44.30
2023-07-25T23:16:33.761Z,44.40
2023-07-25T23:19:03.140Z,44.50
2023-07-25T23:21:32.398Z,44.50
2023-07-25T23:24:01.536Z,44.60
2023-07-25T23:26:31.195Z,44.60
2023-07-25T23:29:01.837Z,44.50
2023-07-25T23:31:31.317Z,44.60
2023-07-25T23:34:00.497Z,44.60
2023-07-25T23:36:30.104Z,44.70
2023-07-25T23:38:59.513Z,44.70
2023-07-25T23:41:28.870Z,44.80
2023-07-25T23:43:58.316Z,44.80
2023-07-25T23:46:28.993Z,44.90
2023-07-25T23:48:58.066Z,44.90
2023-07-25T23:51:27.534Z,45.00
2023-07-25T23:53:58.166Z,45.10
2023-07-25T23:56:27.319Z,45.10
2023-07-25T23:58:56.482Z,45.20
